createdAt,value
2023-02-09T00:00:12.329Z,43.023998
2023-02-09T00:01:21.922Z,43.018002
2023-02-09T00:02:31.714Z,43.028
2023-02-09T00:03:41.377Z,42.999001
2023-02-09T00:04:50.851Z,43.021999
2023-02-09T00:06:00.502Z,43.023998
2023-02-09T00:07:10.123Z,43.033001
2023-02-09T00:08:19.730Z,43.033001
2023-02-09T00:09:29.359Z,43.028
2023-02-09T00:10:38.969Z,43.056999
2023-02-09T00:11:48.612Z,43.044998
2023-02-09T00:12:58.188Z,43.028
2023-02-09T00:14:07.782Z,43.028
2023-02-09T00:15:17.405Z,43.021999
2023-02-09T00:16:27.042Z,43.009998
2023-02-09T00:17:36.634Z,43.021999
2023-02-09T00:18:46.242Z,43.015999
2023-02-09T00:19:55.833Z,43.028
2023-02-09T00:21:05.433Z,43.021999
2023-02-09T00:22:15.075Z,43.028
2023-02-09T00:23:24.694Z,43.021999
2023-02-09T00:24:34.290Z,43.021999
2023-02-09T00:25:43.910Z,43.021999
2023-02-09T00:26:53.559Z,43.004002
2023-02-09T00:28:03.194Z,43.028
2023-02-09T00:29:12.774Z,42.999001
2023-02-09T00:30:22.453Z,43.015999
2023-02-09T00:31:32.092Z,43.021999
2023-02-09T00:32:41.641Z,43.009998
2023-02-09T00:33:51.238Z,43.039001
2023-02-09T00:35:00.901Z,43.033001
2023-02-09T00:36:10.510Z,43.021999
2023-02-09T00:37:20.129Z,43.039001
2023-02-09T00:38:29.712Z,43.015999
2023-02-09T00:39:39.311Z,43.015999
2023-02-09T00:40:48.938Z,42.993
2023-02-09T00:41:58.607Z,43.015999
2023-02-09T00:43:08.194Z,43.004002
2023-02-09T00:44:17.791Z,43.021999
2023-02-09T00:45:27.402Z,43.039001
2023-02-09T00:46:38.005Z,43.033001
2023-02-09T00:47:47.637Z,43.080002
2023-02-09T00:48:57.242Z,43.091
2023-02-09T00:50:06.875Z,43.105
2023-02-09T00:51:16.478Z,43.111
2023-02-09T00:52:26.068Z,43.127998
2023-02-09T00:53:35.669Z,43.127998
2023-02-09T00:54:45.286Z,43.162998
2023-02-09T00:55:54.936Z,43.145
2023-02-09T00:57:04.557Z,43.162998
2023-02-09T00:58:14.168Z,43.183998
2023-02-09T00:59:23.762Z,43.201
2023-02-09T01:00:33.370Z,43.195999
2023-02-09T01:01:42.975Z,43.172001
2023-02-09T01:02:52.619Z,43.166
2023-02-09T01:04:02.209Z,43.143002
2023-02-09T01:05:11.827Z,43.160999
2023-02-09T01:06:21.419Z,43.148998
2023-02-09T01:07:31.044Z,43.166
2023-02-09T01:08:40.672Z,43.172001
2023-02-09T01:09:50.290Z,43.154999
2023-02-09T01:10:59.887Z,43.137001
2023-02-09T01:12:09.518Z,43.139
2023-02-09T01:13:19.122Z,43.132
2023-02-09T01:14:28.737Z,43.151001
2023-02-09T01:15:38.330Z,43.122002
2023-02-09T01:16:48.016Z,43.116001
2023-02-09T01:17:57.587Z,43.113998
2023-02-09T01:19:07.198Z,43.089001
2023-02-09T01:20:16.801Z,43.077999
2023-02-09T01:21:26.412Z,43.095001
2023-02-09T01:22:36.028Z,43.095001
2023-02-09T01:23:45.684Z,43.083
2023-02-09T01:24:55.289Z,43.095001
2023-02-09T01:26:04.933Z,43.083
2023-02-09T01:27:14.576Z,43.071999
2023-02-09T01:28:24.249Z,43.049
2023-02-09T01:29:33.845Z,43.049
2023-02-09T01:30:43.845Z,43.030998
2023-02-09T01:31:53.169Z,43.007999
2023-02-09T01:33:02.668Z,43.001999
2023-02-09T01:34:12.285Z,43.001999
2023-02-09T01:35:21.895Z,42.985001
2023-02-09T01:36:31.495Z,42.973
2023-02-09T01:37:41.092Z,42.959999
2023-02-09T01:38:51.703Z,42.937
2023-02-09T01:40:01.327Z,42.924999
2023-02-09T01:41:10.963Z,42.937
2023-02-09T01:42:20.606Z,42.907001
2023-02-09T01:43:30.176Z,42.883999
2023-02-09T01:44:40.777Z,42.861
2023-02-09T01:45:50.428Z,42.867001
2023-02-09T01:46:59.990Z,42.832001
2023-02-09T01:48:09.644Z,42.832001
2023-02-09T01:49:19.254Z,42.817001
2023-02-09T01:50:29.859Z,42.786999
2023-02-09T01:51:39.455Z,42.792999
2023-02-09T01:52:49.080Z,42.799
2023-02-09T01:53:59.405Z,42.776001
2023-02-09T01:55:09.038Z,42.77
2023-02-09T01:56:18.629Z,42.747002
2023-02-09T01:57:28.261Z,42.728001
2023-02-09T01:58:37.888Z,42.716
2023-02-09T01:59:47.496Z,42.658001
2023-02-09T02:00:59.082Z,42.617001
2023-02-09T02:02:06.795Z,42.587002
2023-02-09T02:03:16.461Z,42.557999
2023-02-09T02:04:26.072Z,42.592999
2023-02-09T02:05:35.682Z,42.581001
2023-02-09T02:06:45.282Z,42.605999
2023-02-09T02:07:54.888Z,42.634998
2023-02-09T02:09:04.519Z,42.605999
2023-02-09T02:10:14.120Z,42.599998
2023-02-09T02:11:23.729Z,42.557999
2023-02-09T02:12:33.367Z,42.575001
2023-02-09T02:13:42.976Z,42.569
2023-02-09T02:14:52.580Z,42.575001
2023-02-09T02:16:02.249Z,42.557999
2023-02-09T02:17:11.818Z,42.592999
2023-02-09T02:18:21.415Z,42.575001
2023-02-09T02:19:31.074Z,42.599998
2023-02-09T02:20:40.674Z,42.592999
2023-02-09T02:21:50.280Z,42.599998
2023-02-09T02:22:59.884Z,42.581001
2023-02-09T02:24:09.575Z,42.551998
2023-02-09T02:25:19.188Z,42.522999
2023-02-09T02:26:28.819Z,42.506001
2023-02-09T02:27:38.443Z,42.477001
2023-02-09T02:28:48.031Z,42.487999
2023-02-09T02:29:57.659Z,42.459
2023-02-09T02:31:07.423Z,42.445999
2023-02-09T02:32:16.943Z,42.445999
2023-02-09T02:33:26.535Z,42.439999
2023-02-09T02:34:36.148Z,42.423
2023-02-09T02:35:45.759Z,42.423
2023-02-09T02:36:55.413Z,42.410999
2023-02-09T02:38:05.036Z,42.367001
2023-02-09T02:39:14.609Z,42.391998
2023-02-09T02:40:24.201Z,42.386002
2023-02-09T02:41:34.841Z,42.415001
2023-02-09T02:42:44.468Z,42.386002
2023-02-09T02:43:54.037Z,42.367001
2023-02-09T02:45:03.646Z,42.314999
2023-02-09T02:46:13.316Z,42.292
2023-02-09T02:47:22.893Z,42.221001
2023-02-09T02:48:32.503Z,42.186001
2023-02-09T02:49:42.104Z,42.162998
2023-02-09T02:50:51.775Z,42.202999
2023-02-09T02:52:01.344Z,42.215
2023-02-09T02:53:10.947Z,42.228001
2023-02-09T02:54:20.565Z,42.250999
2023-02-09T02:55:30.174Z,42.250999
2023-02-09T02:56:39.781Z,42.221001
2023-02-09T02:57:49.455Z,42.196999
2023-02-09T02:58:59.023Z,42.157001
2023-02-09T03:00:08.624Z,42.145
2023-02-09T03:01:18.277Z,42.056999
2023-02-09T03:02:27.875Z,42.046001
2023-02-09T03:03:37.503Z,42.098999
2023-02-09T03:04:47.096Z,42.088001
2023-02-09T03:05:56.706Z,42.09
2023-02-09T03:07:06.346Z,42.043999
2023-02-09T03:08:15.958Z,42.095001
2023-02-09T03:09:25.553Z,42.084
2023-02-09T03:10:35.208Z,42.154999
2023-02-09T03:11:44.794Z,42.125
2023-02-09T03:12:54.413Z,42.112999
2023-02-09T03:14:03.993Z,42.141998
2023-02-09T03:15:13.610Z,42.154999
2023-02-09T03:16:23.311Z,42.219002
2023-02-09T03:17:32.879Z,42.258999
2023-02-09T03:18:42.488Z,42.306999
2023-02-09T03:19:52.094Z,42.330002
2023-02-09T03:21:01.724Z,42.375999
2023-02-09T03:22:11.414Z,42.382
2023-02-09T03:23:21.040Z,42.400002
2023-02-09T03:24:30.648Z,42.394001
2023-02-09T03:25:40.260Z,42.394001
2023-02-09T03:26:49.849Z,42.382
2023-02-09T03:27:59.577Z,42.417
2023-02-09T03:29:09.089Z,42.410999
2023-02-09T03:30:18.697Z,42.394001
2023-02-09T03:31:28.414Z,42.435001
2023-02-09T03:32:37.945Z,42.435001
2023-02-09T03:33:47.548Z,42.405998
2023-02-09T03:34:57.152Z,42.382
2023-02-09T03:36:06.773Z,42.354
2023-02-09T03:37:16.371Z,42.348
2023-02-09T03:38:25.998Z,42.365002
2023-02-09T03:39:35.595Z,42.370998
2023-02-09T03:40:45.408Z,42.388
2023-02-09T03:41:54.782Z,42.348
2023-02-09T03:43:04.387Z,42.365002
2023-02-09T03:44:14.004Z,42.370998
2023-02-09T03:45:23.612Z,42.338001
2023-02-09T03:46:33.326Z,42.332001
2023-02-09T03:47:42.815Z,42.332001
2023-02-09T03:48:52.481Z,42.332001
2023-02-09T03:50:02.212Z,42.361
2023-02-09T03:51:11.756Z,42.349998
2023-02-09T03:52:21.379Z,42.355
2023-02-09T03:53:30.976Z,42.344002
2023-02-09T03:54:40.597Z,42.380001
2023-02-09T03:55:50.235Z,42.386002
2023-02-09T03:56:59.832Z,42.380001
2023-02-09T03:58:09.473Z,42.332001
2023-02-09T03:59:19.080Z,42.320999
2023-02-09T04:00:28.707Z,42.292
2023-02-09T04:01:38.289Z,42.221001
2023-02-09T04:02:47.981Z,42.257
2023-02-09T04:03:57.481Z,42.303001
2023-02-09T04:05:07.105Z,42.338001
2023-02-09T04:06:16.739Z,42.403999
2023-02-09T04:07:26.388Z,42.403999
2023-02-09T04:08:35.993Z,42.391998
2023-02-09T04:09:45.638Z,42.391998
2023-02-09T04:10:55.241Z,42.386002
2023-02-09T04:12:04.853Z,42.386002
2023-02-09T04:13:14.505Z,42.367001
2023-02-09T04:14:24.101Z,42.373001
2023-02-09T04:15:33.995Z,42.380001
2023-02-09T04:16:43.610Z,42.314999
2023-02-09T04:17:53.223Z,42.326
2023-02-09T04:19:02.906Z,42.298
2023-02-09T04:20:12.463Z,42.332001
2023-02-09T04:21:22.097Z,42.332001
2023-02-09T04:22:31.721Z,42.349998
2023-02-09T04:23:41.330Z,42.314999
2023-02-09T04:24:50.933Z,42.298
2023-02-09T04:26:01.531Z,42.269001
2023-02-09T04:27:11.119Z,42.303001
2023-02-09T04:28:20.796Z,42.326
2023-02-09T04:29:30.346Z,42.326
2023-02-09T04:30:39.996Z,42.373001
2023-02-09T04:31:49.651Z,42.386002
2023-02-09T04:32:59.217Z,42.426998
2023-02-09T04:34:08.851Z,42.438
2023-02-09T04:35:18.470Z,42.460999
2023-02-09T04:36:28.082Z,42.479
2023-02-09T04:37:37.773Z,42.490002
2023-02-09T04:38:47.406Z,42.495998
2023-02-09T04:39:57.006Z,42.477001
2023-02-09T04:41:06.639Z,42.506001
2023-02-09T04:42:16.329Z,42.465
2023-02-09T04:43:25.955Z,42.477001
2023-02-09T04:44:35.537Z,42.465
2023-02-09T04:45:45.179Z,42.477001
2023-02-09T04:46:54.815Z,42.439999
2023-02-09T04:48:04.425Z,42.445999
2023-02-09T04:49:14.022Z,42.445999
2023-02-09T04:50:23.646Z,42.453999
2023-02-09T04:51:33.243Z,42.453999
2023-02-09T04:52:42.865Z,42.506001
2023-02-09T04:53:52.510Z,42.405998
2023-02-09T04:55:02.204Z,42.405998
2023-02-09T04:56:11.839Z,42.375999
2023-02-09T04:57:21.442Z,42.335999
2023-02-09T04:58:31.132Z,42.359001
2023-02-09T04:59:40.720Z,42.300999
2023-02-09T05:00:50.348Z,42.348
2023-02-09T05:01:59.936Z,42.365002
2023-02-09T05:03:09.646Z,42.388
2023-02-09T05:04:19.221Z,42.365002
2023-02-09T05:05:28.834Z,42.394001
2023-02-09T05:06:38.483Z,42.400002
2023-02-09T05:07:48.087Z,42.405998
2023-02-09T05:08:57.734Z,42.394001
2023-02-09T05:10:07.347Z,42.410999
2023-02-09T05:11:17.028Z,42.400002
2023-02-09T05:12:26.639Z,42.405998
2023-02-09T05:13:36.307Z,42.435001
2023-02-09T05:14:45.919Z,42.348
2023-02-09T05:15:55.534Z,42.382
2023-02-09T05:17:05.210Z,42.370998
2023-02-09T05:18:14.822Z,42.394001
2023-02-09T05:19:24.427Z,42.359001
2023-02-09T05:20:34.044Z,42.335999
2023-02-09T05:21:43.689Z,42.324001
2023-02-09T05:22:53.291Z,42.264999
2023-02-09T05:24:03.823Z,42.23
2023-02-09T05:25:13.459Z,42.166
2023-02-09T05:26:23.129Z,42.118999
2023-02-09T05:27:32.713Z,42.112999
2023-02-09T05:28:42.360Z,42.037998
2023-02-09T05:29:51.944Z,42.071999
2023-02-09T05:31:01.587Z,42.049
2023-02-09T05:32:11.260Z,41.990002
2023-02-09T05:33:21.817Z,41.995998
2023-02-09T05:34:31.504Z,41.973
2023-02-09T05:35:41.094Z,41.955002
2023-02-09T05:36:50.757Z,41.938
2023-02-09T05:38:00.360Z,41.875
2023-02-09T05:39:09.956Z,41.832001
2023-02-09T05:40:19.614Z,41.882
2023-02-09T05:41:29.204Z,42.016998
2023-02-09T05:42:38.806Z,42.074001
2023-02-09T05:43:48.444Z,42.245998
2023-02-09T05:44:58.090Z,42.279999
2023-02-09T05:46:08.503Z,42.326
2023-02-09T05:47:17.442Z,42.386002
2023-02-09T05:48:27.046Z,42.421001
2023-02-09T05:49:36.720Z,42.460999
2023-02-09T05:50:46.763Z,42.493999
2023-02-09T05:51:56.060Z,42.511002
2023-02-09T05:53:05.718Z,42.522999
2023-02-09T05:54:15.317Z,42.511002
2023-02-09T05:55:24.931Z,42.542
2023-02-09T05:56:34.608Z,42.535999
2023-02-09T05:57:44.234Z,42.505001
2023-02-09T05:58:53.867Z,42.481998
2023-02-09T06:00:03.462Z,42.487999
2023-02-09T06:01:13.094Z,42.487999
2023-02-09T06:02:22.816Z,42.452999
2023-02-09T06:03:32.439Z,42.43
2023-02-09T06:04:42.011Z,42.452999
2023-02-09T06:05:51.726Z,42.452999
2023-02-09T06:07:01.334Z,42.459
2023-02-09T06:08:10.946Z,42.403
2023-02-09T06:09:20.554Z,42.345001
2023-02-09T06:10:30.274Z,42.333
2023-02-09T06:11:39.915Z,42.297001
2023-02-09T06:12:49.521Z,42.257
2023-02-09T06:13:59.169Z,42.250999
2023-02-09T06:15:08.754Z,42.273998
2023-02-09T06:16:18.366Z,42.345001
2023-02-09T06:17:28.020Z,42.351002
2023-02-09T06:18:38.603Z,42.356998
2023-02-09T06:19:48.220Z,42.297001
2023-02-09T06:20:57.859Z,42.244999
2023-02-09T06:22:07.563Z,42.257
2023-02-09T06:23:17.185Z,42.279999
2023-02-09T06:24:26.793Z,42.308998
2023-02-09T06:25:36.393Z,42.356998
2023-02-09T06:26:46.021Z,42.333
2023-02-09T06:27:55.745Z,42.321999
2023-02-09T06:29:06.278Z,42.316002
2023-02-09T06:30:15.873Z,42.209999
2023-02-09T06:31:25.641Z,42.244999
2023-02-09T06:32:35.108Z,42.262001
2023-02-09T06:33:44.721Z,42.193001
2023-02-09T06:34:54.361Z,42.193001
2023-02-09T06:36:03.956Z,42.151001
2023-02-09T06:37:13.568Z,42.098999
2023-02-09T06:38:23.526Z,42.151001
2023-02-09T06:39:33.174Z,42.122002
2023-02-09T06:40:42.785Z,42.053001
2023-02-09T06:41:52.400Z,42.098999
2023-02-09T06:43:02.001Z,42.030998
2023-02-09T06:44:11.673Z,41.997002
2023-02-09T06:45:21.271Z,41.962002
2023-02-09T06:46:30.914Z,41.925999
2023-02-09T06:47:40.489Z,42.012001
2023-02-09T06:48:50.121Z,42.137001
2023-02-09T06:49:59.756Z,42.116001
2023-02-09T06:51:09.378Z,42.234001
2023-02-09T06:52:18.981Z,42.308998
2023-02-09T06:53:28.600Z,42.327999
2023-02-09T06:54:38.245Z,42.333
2023-02-09T06:55:48.844Z,42.297001
2023-02-09T06:56:58.469Z,42.268002
2023-02-09T06:58:08.088Z,42.228001
2023-02-09T06:59:17.719Z,42.122002
2023-02-09T07:00:27.361Z,42.105
2023-02-09T07:01:36.997Z,42.110001
2023-02-09T07:02:46.620Z,42.076
2023-02-09T07:03:56.208Z,42.082001
2023-02-09T07:05:05.854Z,42.076
2023-02-09T07:06:15.481Z,42.041
2023-02-09T07:07:25.536Z,42.023998
2023-02-09T07:08:34.678Z,41.981998
2023-02-09T07:09:44.281Z,41.970001
2023-02-09T07:10:53.937Z,41.993
2023-02-09T07:12:03.551Z,42.057999
2023-02-09T07:13:13.831Z,42.053001
2023-02-09T07:14:23.525Z,42.063999
2023-02-09T07:15:33.081Z,42.047001
2023-02-09T07:16:42.695Z,42.036999
2023-02-09T07:17:52.280Z,42.036999
2023-02-09T07:19:01.894Z,42.055
2023-02-09T07:20:11.510Z,41.997002
2023-02-09T07:21:21.153Z,41.951
2023-02-09T07:22:30.772Z,41.991001
2023-02-09T07:23:40.371Z,42.026001
2023-02-09T07:24:50.008Z,42.008999
2023-02-09T07:25:59.632Z,42.02
2023-02-09T07:27:09.258Z,42.077999
2023-02-09T07:28:18.958Z,42.083
2023-02-09T07:29:28.580Z,42.071999
2023-02-09T07:30:38.222Z,42.077999
2023-02-09T07:31:47.974Z,42.055
2023-02-09T07:32:57.437Z,42.014
2023-02-09T07:34:07.067Z,42.014
2023-02-09T07:35:16.694Z,41.925999
2023-02-09T07:36:26.329Z,41.957001
2023-02-09T07:37:35.980Z,41.973999
2023-02-09T07:38:45.589Z,42.036999
2023-02-09T07:39:55.190Z,42.014
2023-02-09T07:41:04.821Z,41.890999
2023-02-09T07:42:14.491Z,41.845001
2023-02-09T07:43:24.092Z,41.805
2023-02-09T07:44:33.743Z,41.757
2023-02-09T07:45:43.655Z,41.868
2023-02-09T07:46:53.036Z,41.919998
2023-02-09T07:48:02.595Z,41.845001
2023-02-09T07:49:12.202Z,41.925999
2023-02-09T07:50:21.825Z,41.997002
2023-02-09T07:51:33.407Z,42.008999
2023-02-09T07:52:41.090Z,41.991001
2023-02-09T07:53:50.708Z,42.097
2023-02-09T07:55:00.354Z,42.097
2023-02-09T07:56:09.989Z,42.061001
2023-02-09T07:57:19.588Z,42.008999
2023-02-09T07:58:29.188Z,42.002998
2023-02-09T07:59:38.874Z,42.061001
2023-02-09T08:00:49.135Z,42.071999
2023-02-09T08:01:58.772Z,42.032001
2023-02-09T08:03:08.382Z,41.991001
2023-02-09T08:04:18.064Z,42.083
2023-02-09T08:05:27.914Z,42.02
2023-02-09T08:06:42.336Z,41.962002
2023-02-09T08:07:47.951Z,41.909
2023-02-09T08:08:57.582Z,41.763
2023-02-09T08:10:07.230Z,41.845001
2023-02-09T08:11:16.835Z,41.915001
2023-02-09T08:12:26.532Z,41.98
2023-02-09T08:13:36.091Z,41.909
2023-02-09T08:14:45.767Z,41.925999
2023-02-09T08:15:55.395Z,42.008999
2023-02-09T08:17:04.975Z,41.945
2023-02-09T08:18:14.581Z,41.773998
2023-02-09T08:19:24.239Z,41.856998
2023-02-09T08:20:33.860Z,41.868
2023-02-09T08:21:43.483Z,41.890999
2023-02-09T08:22:53.095Z,41.884998
2023-02-09T08:24:02.713Z,41.919998
2023-02-09T08:25:12.395Z,41.839001
2023-02-09T08:26:22.016Z,41.931999
2023-02-09T08:27:31.626Z,41.890999
2023-02-09T08:28:44.204Z,41.884998
2023-02-09T08:29:50.879Z,41.779999
2023-02-09T08:31:00.507Z,41.884998
2023-02-09T08:32:10.178Z,41.773998
2023-02-09T08:33:19.722Z,41.710999
2023-02-09T08:34:29.320Z,41.641998
2023-02-09T08:35:38.973Z,41.827999
2023-02-09T08:36:48.588Z,41.967999
2023-02-09T08:37:58.211Z,41.98
2023-02-09T08:39:07.826Z,42.083
2023-02-09T08:40:17.488Z,41.991001
2023-02-09T08:41:27.120Z,42.002998
2023-02-09T08:42:36.742Z,42.049
2023-02-09T08:43:46.372Z,42.02
2023-02-09T08:44:56.040Z,42.049
2023-02-09T08:46:05.817Z,41.985001
2023-02-09T08:47:15.338Z,41.967999
2023-02-09T08:48:24.930Z,42.061001
2023-02-09T08:49:34.559Z,42.026001
2023-02-09T08:50:44.166Z,41.951
2023-02-09T08:51:53.826Z,41.903
2023-02-09T08:53:03.436Z,41.845001
2023-02-09T08:54:13.099Z,41.699001
2023-02-09T08:55:22.713Z,41.919998
2023-02-09T08:56:32.323Z,41.919998
2023-02-09T08:57:44.538Z,41.973999
2023-02-09T08:58:51.551Z,42.097
2023-02-09T09:00:01.183Z,42.042999
2023-02-09T09:01:10.800Z,41.985001
2023-02-09T09:02:20.386Z,42.083
2023-02-09T09:03:30.210Z,42.097
2023-02-09T09:04:39.641Z,42.137001
2023-02-09T09:05:49.484Z,42.119999
2023-02-09T09:06:58.918Z,42.137001
2023-02-09T09:08:09.517Z,42.077999
2023-02-09T09:09:19.152Z,42.125999
2023-02-09T09:10:28.784Z,42.183998
2023-02-09T09:11:38.392Z,42.188999
2023-02-09T09:12:48.016Z,42.217999
2023-02-09T09:13:57.651Z,42.188999
2023-02-09T09:15:07.319Z,42.223999
2023-02-09T09:16:16.918Z,42.201
2023-02-09T09:17:26.510Z,42.178001
2023-02-09T09:18:36.131Z,42.108002
2023-02-09T09:19:46.777Z,42.083
2023-02-09T09:20:56.396Z,42.071999
2023-02-09T09:22:06.009Z,42.098999
2023-02-09T09:23:15.634Z,42.029999
2023-02-09T09:24:25.284Z,42.087002
2023-02-09T09:25:34.897Z,42.047001
2023-02-09T09:26:44.520Z,42.083
2023-02-09T09:27:54.153Z,41.98
2023-02-09T09:29:03.733Z,41.889
2023-02-09T09:30:13.411Z,41.895
2023-02-09T09:31:23.227Z,41.883999
2023-02-09T09:32:32.784Z,41.866001
2023-02-09T09:33:42.263Z,41.816002
2023-02-09T09:34:51.945Z,41.744999
2023-02-09T09:36:01.574Z,41.903
2023-02-09T09:37:11.212Z,41.792999
2023-02-09T09:38:20.814Z,41.884998
2023-02-09T09:39:30.444Z,41.851002
2023-02-09T09:40:40.107Z,41.805
2023-02-09T09:41:49.760Z,41.811001
2023-02-09T09:42:59.373Z,41.862999
2023-02-09T09:44:08.997Z,41.728001
2023-02-09T09:45:18.637Z,41.740002
2023-02-09T09:46:28.294Z,41.681999
2023-02-09T09:47:37.898Z,41.669998
2023-02-09T09:48:47.492Z,41.665001
2023-02-09T09:49:57.109Z,41.646999
2023-02-09T09:51:06.813Z,41.722
2023-02-09T09:52:16.451Z,41.641998
2023-02-09T09:53:26.073Z,41.617001
2023-02-09T09:54:35.690Z,41.627998
2023-02-09T09:55:46.412Z,41.653
2023-02-09T09:56:55.955Z,41.669998
2023-02-09T09:58:05.588Z,41.669998
2023-02-09T09:59:15.214Z,41.605
2023-02-09T10:00:24.872Z,41.665001
2023-02-09T10:01:34.591Z,41.599998
2023-02-09T10:02:44.092Z,41.570999
2023-02-09T10:03:53.705Z,41.582001
2023-02-09T10:05:03.319Z,41.594002
2023-02-09T10:06:12.940Z,41.605
2023-02-09T10:07:23.793Z,41.699001
2023-02-09T10:08:32.194Z,41.722
2023-02-09T10:09:41.804Z,41.699001
2023-02-09T10:10:51.418Z,41.678001
2023-02-09T10:12:01.027Z,41.654999
2023-02-09T10:13:10.660Z,41.514999
2023-02-09T10:14:22.273Z,41.585999
2023-02-09T10:15:29.905Z,41.620998
2023-02-09T10:16:39.530Z,41.644001
2023-02-09T10:17:49.111Z,41.537998
2023-02-09T10:18:58.726Z,41.575001
2023-02-09T10:20:08.334Z,41.580002
2023-02-09T10:21:17.921Z,41.504002
2023-02-09T10:22:27.535Z,41.521
2023-02-09T10:23:37.186Z,41.556
2023-02-09T10:24:46.809Z,41.580002
2023-02-09T10:25:56.410Z,41.549999
2023-02-09T10:27:06.080Z,41.532001
2023-02-09T10:28:15.740Z,41.537998
2023-02-09T10:29:25.330Z,41.521
2023-02-09T10:30:34.978Z,41.504002
2023-02-09T10:31:44.805Z,41.458
2023-02-09T10:32:54.159Z,41.492001
2023-02-09T10:34:03.791Z,41.439999
2023-02-09T10:35:13.387Z,41.41
2023-02-09T10:36:22.993Z,41.306
2023-02-09T10:37:32.600Z,41.334999
2023-02-09T10:38:42.234Z,41.252998
2023-02-09T10:39:51.830Z,41.300999
2023-02-09T10:41:01.440Z,41.341
2023-02-09T10:42:11.107Z,41.358002
2023-02-09T10:43:20.725Z,41.375
2023-02-09T10:44:30.404Z,41.341
2023-02-09T10:45:40.044Z,41.353001
2023-02-09T10:46:49.678Z,41.318001
2023-02-09T10:47:59.282Z,41.417
2023-02-09T10:49:08.891Z,41.408001
2023-02-09T10:50:18.542Z,41.477001
2023-02-09T10:51:28.124Z,41.453999
2023-02-09T10:52:37.758Z,41.459999
2023-02-09T10:53:47.368Z,41.483002
2023-02-09T10:54:56.993Z,41.459999
2023-02-09T10:56:06.599Z,41.495998
2023-02-09T10:57:16.275Z,41.448002
2023-02-09T10:58:25.869Z,41.471001
2023-02-09T10:59:35.494Z,41.408001
2023-02-09T11:00:45.125Z,41.384998
2023-02-09T11:01:54.825Z,41.345001
2023-02-09T11:03:04.358Z,41.297001
2023-02-09T11:04:13.964Z,41.307999
2023-02-09T11:05:23.612Z,41.054001
2023-02-09T11:06:33.231Z,41.117001
2023-02-09T11:07:42.836Z,41.088001
2023-02-09T11:08:52.499Z,41.042
2023-02-09T11:10:02.109Z,41.054001
2023-02-09T11:11:12.775Z,41.028999
2023-02-09T11:12:22.376Z,40.937
2023-02-09T11:13:32.506Z,40.943001
2023-02-09T11:14:41.601Z,40.986
2023-02-09T11:15:51.280Z,40.929001
2023-02-09T11:17:00.852Z,40.992001
2023-02-09T11:18:10.440Z,40.98
2023-02-09T11:19:20.063Z,40.933998
2023-02-09T11:20:29.663Z,41.137001
2023-02-09T11:21:39.348Z,41.208
2023-02-09T11:22:48.947Z,40.957001
2023-02-09T11:23:58.588Z,40.73
2023-02-09T11:25:08.178Z,40.448002
2023-02-09T11:26:17.828Z,40.160999
2023-02-09T11:27:28.420Z,40.167
2023-02-09T11:28:38.033Z,40.011002
2023-02-09T11:29:47.627Z,39.966
2023-02-09T11:30:57.365Z,39.895
2023-02-09T11:32:06.997Z,39.783001
2023-02-09T11:33:16.530Z,39.661999
2023-02-09T11:34:26.444Z,39.541
2023-02-09T11:35:35.800Z,39.490002
2023-02-09T11:36:45.375Z,39.507
2023-02-09T11:37:55.034Z,39.396999
2023-02-09T11:39:04.656Z,39.328999
2023-02-09T11:40:14.280Z,39.264999
2023-02-09T11:41:23.873Z,39.219002
2023-02-09T11:42:33.549Z,39.110001
2023-02-09T11:43:43.166Z,39.007999
2023-02-09T11:44:52.803Z,38.875999
2023-02-09T11:46:02.522Z,38.834999
2023-02-09T11:47:12.025Z,38.738998
2023-02-09T11:48:21.661Z,38.68
2023-02-09T11:49:31.298Z,38.59
2023-02-09T11:50:40.917Z,38.526001
2023-02-09T11:51:50.522Z,38.418999
2023-02-09T11:53:00.155Z,38.240002
2023-02-09T11:54:09.795Z,38.212002
2023-02-09T11:55:19.418Z,38.207001
2023-02-09T11:56:29.042Z,38.122002
2023-02-09T11:57:38.653Z,38.025002
2023-02-09T11:58:48.288Z,37.888
2023-02-09T11:59:57.896Z,37.796001
2023-02-09T12:01:15.351Z,37.740002
2023-02-09T12:02:18.090Z,37.706001
2023-02-09T12:03:28.743Z,37.712002
2023-02-09T12:04:38.351Z,37.723
2023-02-09T12:05:47.961Z,37.701
2023-02-09T12:06:57.700Z,37.740002
2023-02-09T12:08:07.190Z,37.84
2023-02-09T12:09:16.827Z,37.884998
2023-02-09T12:10:26.430Z,37.937
2023-02-09T12:11:36.049Z,37.987999
2023-02-09T12:12:45.662Z,38.014
2023-02-09T12:13:55.304Z,38.025002
2023-02-09T12:15:04.934Z,38.063999
2023-02-09T12:16:14.588Z,38.102001
2023-02-09T12:17:24.164Z,38.049999
2023-02-09T12:18:33.752Z,38.071999
2023-02-09T12:19:43.412Z,38.039001
2023-02-09T12:20:54.016Z,38.021999
2023-02-09T12:22:04.627Z,38.036999
2023-02-09T12:23:14.254Z,38.036999
2023-02-09T12:24:23.916Z,38.116001
2023-02-09T12:25:33.605Z,38.098999
2023-02-09T12:26:43.204Z,38.048
2023-02-09T12:27:52.903Z,38.048
2023-02-09T12:29:03.544Z,38.007
2023-02-09T12:30:13.075Z,37.962002
2023-02-09T12:31:22.883Z,37.923
2023-02-09T12:32:32.306Z,37.905998
2023-02-09T12:33:41.953Z,37.895
2023-02-09T12:34:51.579Z,37.852001
2023-02-09T12:36:01.186Z,37.852001
2023-02-09T12:37:10.793Z,37.818001
2023-02-09T12:38:20.420Z,37.771
2023-02-09T12:39:30.042Z,37.709
2023-02-09T12:40:39.687Z,37.675999
2023-02-09T12:41:49.296Z,37.59
2023-02-09T12:42:58.927Z,37.539001
2023-02-09T12:44:09.565Z,37.465
2023-02-09T12:45:19.143Z,37.396999
2023-02-09T12:46:28.890Z,37.332001
2023-02-09T12:47:38.356Z,37.292999
2023-02-09T12:48:47.983Z,37.23
2023-02-09T12:49:57.624Z,37.217999
2023-02-09T12:51:07.252Z,37.174
2023-02-09T12:52:16.878Z,37.185001
2023-02-09T12:53:26.525Z,37.205002
2023-02-09T12:54:36.161Z,37.222
2023-02-09T12:55:46.164Z,37.216999
2023-02-09T12:56:55.408Z,37.196999
2023-02-09T12:58:05.024Z,37.18
2023-02-09T12:59:14.621Z,37.134998
2023-02-09T13:00:24.275Z,37.139999
2023-02-09T13:01:33.987Z,37.118
2023-02-09T13:02:43.558Z,37.049
2023-02-09T13:03:53.192Z,37.021
2023-02-09T13:05:02.813Z,37.007
2023-02-09T13:06:12.437Z,37.000999
2023-02-09T13:07:22.038Z,37.000999
2023-02-09T13:08:31.652Z,37.000999
2023-02-09T13:09:41.271Z,36.956001
2023-02-09T13:10:50.909Z,36.928001
2023-02-09T13:12:00.536Z,36.914001
2023-02-09T13:13:10.167Z,36.908001
2023-02-09T13:14:19.785Z,36.890999
2023-02-09T13:15:29.418Z,36.863998
2023-02-09T13:16:39.122Z,36.863998
2023-02-09T13:17:48.662Z,36.847
2023-02-09T13:18:58.245Z,36.789001
2023-02-09T13:20:07.905Z,36.804001
2023-02-09T13:21:17.548Z,36.759998
2023-02-09T13:22:27.163Z,36.779999
2023-02-09T13:23:36.775Z,36.785999
2023-02-09T13:24:46.408Z,36.838001
2023-02-09T13:25:56.090Z,36.865002
2023-02-09T13:27:06.984Z,36.908001
2023-02-09T13:28:15.408Z,36.959
2023-02-09T13:29:24.966Z,36.980999
2023-02-09T13:30:34.580Z,37.061001
2023-02-09T13:31:44.269Z,37.143002